Private Wetterstation Sandau
Wetterdaten: Mai 2012
Datum Temp. A. Feuchte A. Luftdruck Regen Wind Richtung Taupunkt Windchill
01.05.2012 18,3 C 61 % 1017,3 hPa 0,0 l/m 7,5 km/h (2 Bft) O-NO 10,4 C 18,3 C
02.05.2012 18,4 C 56 % 1014,5 hPa 0,0 l/m 8,2 km/h (2 Bft) O-NO 9,1 C 18,4 C
03.05.2012 16,4 C 69 % 1009,7 hPa 0,0 l/m 4,5 km/h (1 Bft) W 10,7 C 16,4 C
04.05.2012 16,4 C 65 % 1003,8 hPa 0,5 l/m 3,7 km/h (1 Bft) W-SW 9,6 C 16,4 C
05.05.2012 9,8 C 79 % 1007,6 hPa 4,7 l/m 5,0 km/h (1 Bft) NO 6,2 C 9,2 C
06.05.2012 10,6 C 68 % 1013,8 hPa 2,6 l/m 2,5 km/h (1 Bft) O-NO 4,9 C 10,6 C
07.05.2012 10,8 C 75 % 1019,4 hPa 0,5 l/m 1,6 km/h (1 Bft) O 6,5 C 10,8 C
08.05.2012 15,4 C 63 % 1015,7 hPa 0,5 l/m 4,8 km/h (1 Bft) SO 7,9 C 15,3 C
09.05.2012 17,8 C 70 % 1015,4 hPa 0,0 l/m 9,2 km/h (2 Bft) S-SW 12,1 C 17,8 C
10.05.2012 20,6 C 69 % 1018,3 hPa 0,0 l/m 10,1 km/h (2 Bft) S-SO 14,5 C 20,6 C
11.05.2012 18,9 C 76 % 1019,3 hPa 8,8 l/m 8,4 km/h (2 Bft) W-SW 14,3 C 18,9 C
12.05.2012 10,5 C 60 % 1030,1 hPa 0,0 l/m 9,6 km/h (2 Bft) W-NW 2,8 C 9,9 C
13.05.2012 11,0 C 57 % 1029,4 hPa 0,0 l/m 4,5 km/h (1 Bft) W-NW 2,6 C 10,6 C
14.05.2012 13,9 C 49 % 1019,1 hPa 0,0 l/m 6,5 km/h (2 Bft) S-SO 2,9 C 13,9 C
15.05.2012 12,8 C 64 % 1008,7 hPa 7,8 l/m 4,0 km/h (1 Bft) S-SO 5,5 C 12,8 C
16.05.2012 9,2 C 69 % 1018,1 hPa 1,0 l/m 7,0 km/h (2 Bft) W 3,7 C 8,8 C
17.05.2012 10,7 C 59 % 1021,1 hPa 0,0 l/m 8,6 km/h (2 Bft) W 2,9 C 10,1 C
18.05.2012 13,8 C 50 % 1015,6 hPa 0,0 l/m 4,3 km/h (1 Bft) SO 3,0 C 13,8 C
19.05.2012 18,3 C 61 % 1013,8 hPa 0,0 l/m 4,3 km/h (1 Bft) O 10,3 C 18,3 C
20.05.2012 21,8 C 46 % 1008,9 hPa 0,0 l/m 7,7 km/h (2 Bft) O 9,0 C 21,8 C
21.05.2012 23,1 C 51 % 1003,9 hPa 0,0 l/m 7,6 km/h (2 Bft) O 12,1 C 23,1 C
22.05.2012 24,7 C 55 % 1010,9 hPa 0,0 l/m 6,0 km/h (2 Bft) O 14,5 C 24,7 C
23.05.2012 22,8 C 57 % 1022,6 hPa 0,0 l/m 4,5 km/h (1 Bft) O-NO 13,4 C 22,8 C
24.05.2012 19,3 C 39 % 1029,6 hPa 0,0 l/m 12,6 km/h (3 Bft) O-NO 4,7 C 19,3 C
25.05.2012 18,7 C 36 % 1027,8 hPa 0,0 l/m 8,2 km/h (2 Bft) O-NO 2,9 C 18,7 C
26.05.2012 20,0 C 39 % 1024,4 hPa 0,5 l/m 5,1 km/h (1 Bft) O-NO 4,7 C 20,0 C
27.05.2012 20,7 C 45 % 1019,8 hPa 0,0 l/m 4,2 km/h (1 Bft) O-NO 7,9 C 20,7 C
28.05.2012 22,9 C 44 % 1013,4 hPa 0,0 l/m 0,9 km/h (0 Bft) O-NO 9,9 C 22,9 C
29.05.2012 17,4 C 50 % 1013,0 hPa 0,0 l/m 5,4 km/h (1 Bft) W-NW 6,5 C 17,4 C
30.05.2012 14,6 C 59 % 1017,5 hPa 0,0 l/m 5,2 km/h (1 Bft) W-NW 6,5 C 14,6 C
31.05.2012 15,3 C 73 % 1013,6 hPa 16,1 l/m 4,1 km/h (1 Bft) W-SW 10,1 C 15,3 C
Min-Datum 17.05.12 26.05.12 04.05.12 10 Tage 01.05.12 - 12.05.12 17.05.12
Min-Zeit 05:26 15:01 19:01 - 04:16 - 19:01 05:36
Minimum 4,1 C 23 % 1001,6 hPa - 0,0 km/h (0 Bft) - 0,6 C 0,5 C
Max-Datum 22.05.12 10.05.12 12.05.12 31.05.12 12.05.12 - 11.05.12 22.05.12
Max-Zeit 16:56 06:16 23:46 20:31 11:31 - 12:51 16:56
Maximum 31,3 C 88 % 1032,6 hPa 16,1 l/m 32,8 km/h
W-NW (5 Bft)
- 18,6 C 31,3 C
Durchschnitt 16,6 C 58 % 1016,6 hPa #43,0 l/m 6,0 km/h (2 Bft) O 7,8 C 16,5 C

Durchschnitt Minimum Temp.10,7 C
Durchschnitt Maximum Temp.21,9 C
(c) by David Heller